sensor_id;sensor_type;location;lat;lon;timestamp;temperature;humidity
12901;DHT22;6518;50.930;5.344;2023-03-01T00:02:01;1.10;73.80
12901;DHT22;6518;50.930;5.344;2023-03-01T00:04:28;1.10;73.90
12901;DHT22;6518;50.930;5.344;2023-03-01T00:06:55;1.10;74.10
12901;DHT22;6518;50.930;5.344;2023-03-01T00:09:21;1.10;74.20
12901;DHT22;6518;50.930;5.344;2023-03-01T00:11:48;1.10;74.20
12901;DHT22;6518;50.930;5.344;2023-03-01T00:14:17;1.10;74.40
12901;DHT22;6518;50.930;5.344;2023-03-01T00:16:44;1.00;74.20
12901;DHT22;6518;50.930;5.344;2023-03-01T00:19:14;1.00;74.40
12901;DHT22;6518;50.930;5.344;2023-03-01T00:21:41;1.00;74.50
12901;DHT22;6518;50.930;5.344;2023-03-01T00:24:09;1.00;74.40
12901;DHT22;6518;50.930;5.344;2023-03-01T00:26:36;1.00;74.40
12901;DHT22;6518;50.930;5.344;2023-03-01T00:29:03;1.00;74.60
12901;DHT22;6518;50.930;5.344;2023-03-01T00:31:32;1.00;74.50
12901;DHT22;6518;50.930;5.344;2023-03-01T00:34:01;1.00;74.50
12901;DHT22;6518;50.930;5.344;2023-03-01T00:36:30;1.00;75.40
12901;DHT22;6518;50.930;5.344;2023-03-01T00:38:57;0.90;74.60
12901;DHT22;6518;50.930;5.344;2023-03-01T00:41:24;0.90;74.70
12901;DHT22;6518;50.930;5.344;2023-03-01T00:43:52;0.90;74.80
12901;DHT22;6518;50.930;5.344;2023-03-01T00:46:20;0.90;75.10
12901;DHT22;6518;50.930;5.344;2023-03-01T00:48:49;0.90;75.10
12901;DHT22;6518;50.930;5.344;2023-03-01T00:51:18;0.80;75.10
12901;DHT22;6518;50.930;5.344;2023-03-01T00:53:45;0.80;75.20
12901;DHT22;6518;50.930;5.344;2023-03-01T00:56:14;0.80;75.20
12901;DHT22;6518;50.930;5.344;2023-03-01T00:58:41;0.80;75.20
12901;DHT22;6518;50.930;5.344;2023-03-01T01:01:09;0.80;75.40
12901;DHT22;6518;50.930;5.344;2023-03-01T01:03:44;0.80;75.50
12901;DHT22;6518;50.930;5.344;2023-03-01T01:06:18;0.70;75.50
12901;DHT22;6518;50.930;5.344;2023-03-01T01:08:46;0.70;75.70
12901;DHT22;6518;50.930;5.344;2023-03-01T01:11:14;0.70;75.80
12901;DHT22;6518;50.930;5.344;2023-03-01T01:13:41;0.70;75.90
12901;DHT22;6518;50.930;5.344;2023-03-01T01:16:10;0.70;75.90
12901;DHT22;6518;50.930;5.344;2023-03-01T01:18:37;0.70;75.80
12901;DHT22;6518;50.930;5.344;2023-03-01T01:21:06;0.70;76.00
12901;DHT22;6518;50.930;5.344;2023-03-01T01:23:36;0.70;76.20
12901;DHT22;6518;50.930;5.344;2023-03-01T01:26:04;0.60;76.20
12901;DHT22;6518;50.930;5.344;2023-03-01T01:28:31;0.60;76.40
12901;DHT22;6518;50.930;5.344;2023-03-01T01:30:58;0.60;76.50
12901;DHT22;6518;50.930;5.344;2023-03-01T01:33:25;0.50;76.60
12901;DHT22;6518;50.930;5.344;2023-03-01T01:35:52;0.50;76.70
12901;DHT22;6518;50.930;5.344;2023-03-01T01:38:19;0.50;76.70
12901;DHT22;6518;50.930;5.344;2023-03-01T01:40:48;0.50;76.80
12901;DHT22;6518;50.930;5.344;2023-03-01T01:43:21;0.50;76.80
12901;DHT22;6518;50.930;5.344;2023-03-01T01:45:50;0.50;77.00
12901;DHT22;6518;50.930;5.344;2023-03-01T01:48:19;0.50;77.00
12901;DHT22;6518;50.930;5.344;2023-03-01T01:50:55;0.40;77.00
12901;DHT22;6518;50.930;5.344;2023-03-01T01:53:23;0.40;76.90
12901;DHT22;6518;50.930;5.344;2023-03-01T01:55:54;0.40;77.10
12901;DHT22;6518;50.930;5.344;2023-03-01T01:58:24;0.40;77.20
12901;DHT22;6518;50.930;5.344;2023-03-01T02:00:53;0.40;77.20
12901;DHT22;6518;50.930;5.344;2023-03-01T02:03:24;0.40;77.30
12901;DHT22;6518;50.930;5.344;2023-03-01T02:05:57;0.40;77.20
12901;DHT22;6518;50.930;5.344;2023-03-01T02:08:28;0.40;77.30
12901;DHT22;6518;50.930;5.344;2023-03-01T02:10:58;0.30;77.40
12901;DHT22;6518;50.930;5.344;2023-03-01T02:13:26;0.30;77.50
12901;DHT22;6518;50.930;5.344;2023-03-01T02:15:53;0.30;77.60
12901;DHT22;6518;50.930;5.344;2023-03-01T02:18:21;0.30;77.70
12901;DHT22;6518;50.930;5.344;2023-03-01T02:20:58;0.30;77.70
12901;DHT22;6518;50.930;5.344;2023-03-01T02:23:29;0.30;77.80
12901;DHT22;6518;50.930;5.344;2023-03-01T02:26:00;0.30;77.80
12901;DHT22;6518;50.930;5.344;2023-03-01T02:28:33;0.30;77.70
12901;DHT22;6518;50.930;5.344;2023-03-01T02:31:01;0.30;77.90
12901;DHT22;6518;50.930;5.344;2023-03-01T02:33:46;0.20;77.80
12901;DHT22;6518;50.930;5.344;2023-03-01T02:36:18;0.20;77.90
12901;DHT22;6518;50.930;5.344;2023-03-01T02:38:46;0.20;78.00
12901;DHT22;6518;50.930;5.344;2023-03-01T02:41:16;0.10;78.10
12901;DHT22;6518;50.930;5.344;2023-03-01T02:43:46;0.10;78.20
12901;DHT22;6518;50.930;5.344;2023-03-01T02:46:17;0.10;78.30
12901;DHT22;6518;50.930;5.344;2023-03-01T02:48:48;0.10;78.50
12901;DHT22;6518;50.930;5.344;2023-03-01T02:51:26;0.10;78.50
12901;DHT22;6518;50.930;5.344;2023-03-01T02:54:06;0.00;78.60
12901;DHT22;6518;50.930;5.344;2023-03-01T02:56:34;-0.10;79.80
12901;DHT22;6518;50.930;5.344;2023-03-01T02:59:02;-0.10;78.90
12901;DHT22;6518;50.930;5.344;2023-03-01T03:01:30;0.00;79.10
12901;DHT22;6518;50.930;5.344;2023-03-01T03:04:03;0.00;79.10
12901;DHT22;6518;50.930;5.344;2023-03-01T03:06:30;-0.10;79.10
12901;DHT22;6518;50.930;5.344;2023-03-01T03:08:57;0.00;79.00
12901;DHT22;6518;50.930;5.344;2023-03-01T03:11:24;0.00;79.10
12901;DHT22;6518;50.930;5.344;2023-03-01T03:13:51;-0.10;79.10
12901;DHT22;6518;50.930;5.344;2023-03-01T03:16:19;-0.10;79.10
12901;DHT22;6518;50.930;5.344;2023-03-01T03:18:47;-0.10;79.10
12901;DHT22;6518;50.930;5.344;2023-03-01T03:21:14;-0.10;79.30
12901;DHT22;6518;50.930;5.344;2023-03-01T03:23:41;-0.10;79.30
12901;DHT22;6518;50.930;5.344;2023-03-01T03:26:08;-0.20;79.40
12901;DHT22;6518;50.930;5.344;2023-03-01T03:28:40;-0.10;79.50
12901;DHT22;6518;50.930;5.344;2023-03-01T03:31:07;-0.10;79.30
12901;DHT22;6518;50.930;5.344;2023-03-01T03:33:35;-0.20;79.50
12901;DHT22;6518;50.930;5.344;2023-03-01T03:36:03;-0.20;79.60
12901;DHT22;6518;50.930;5.344;2023-03-01T03:38:30;-0.20;79.60
12901;DHT22;6518;50.930;5.344;2023-03-01T03:41:01;-0.30;79.70
12901;DHT22;6518;50.930;5.344;2023-03-01T03:43:30;-0.30;79.80
12901;DHT22;6518;50.930;5.344;2023-03-01T03:45:57;-0.30;79.80
12901;DHT22;6518;50.930;5.344;2023-03-01T03:48:24;-0.30;79.90
12901;DHT22;6518;50.930;5.344;2023-03-01T03:50:54;-0.30;80.20
12901;DHT22;6518;50.930;5.344;2023-03-01T03:53:22;-0.30;80.10
12901;DHT22;6518;50.930;5.344;2023-03-01T03:55:50;-0.30;80.00
12901;DHT22;6518;50.930;5.344;2023-03-01T03:58:18;-0.30;80.10
12901;DHT22;6518;50.930;5.344;2023-03-01T04:00:47;-0.30;80.20
12901;DHT22;6518;50.930;5.344;2023-03-01T04:03:15;-0.30;80.20
12901;DHT22;6518;50.930;5.344;2023-03-01T04:05:42;-0.40;80.20
12901;DHT22;6518;50.930;5.344;2023-03-01T04:08:11;-0.40;80.30
12901;DHT22;6518;50.930;5.344;2023-03-01T04:10:40;-0.40;80.30
12901;DHT22;6518;50.930;5.344;2023-03-01T04:13:11;-0.40;80.40
12901;DHT22;6518;50.930;5.344;2023-03-01T04:15:38;-0.40;80.50
12901;DHT22;6518;50.930;5.344;2023-03-01T04:18:06;-0.40;80.50
12901;DHT22;6518;50.930;5.344;2023-03-01T04:20:34;-0.40;80.40
12901;DHT22;6518;50.930;5.344;2023-03-01T04:23:03;-0.40;80.50
12901;DHT22;6518;50.930;5.344;2023-03-01T04:25:38;-0.40;80.60
12901;DHT22;6518;50.930;5.344;2023-03-01T04:28:04;-0.40;80.60
12901;DHT22;6518;50.930;5.344;2023-03-01T04:30:31;-0.40;80.60
12901;DHT22;6518;50.930;5.344;2023-03-01T04:33:01;-0.40;80.60
12901;DHT22;6518;50.930;5.344;2023-03-01T04:35:29;-0.50;80.60
12901;DHT22;6518;50.930;5.344;2023-03-01T04:37:56;-0.60;80.80
12901;DHT22;6518;50.930;5.344;2023-03-01T04:40:23;-0.60;81.00
12901;DHT22;6518;50.930;5.344;2023-03-01T04:42:51;-0.60;81.10
12901;DHT22;6518;50.930;5.344;2023-03-01T04:45:18;-0.60;81.10
12901;DHT22;6518;50.930;5.344;2023-03-01T04:47:46;-0.70;81.40
12901;DHT22;6518;50.930;5.344;2023-03-01T04:50:15;-0.70;81.40
12901;DHT22;6518;50.930;5.344;2023-03-01T04:52:43;-0.70;81.40
12901;DHT22;6518;50.930;5.344;2023-03-01T04:55:11;-0.60;81.50
12901;DHT22;6518;50.930;5.344;2023-03-01T04:57:38;-0.60;81.50
12901;DHT22;6518;50.930;5.344;2023-03-01T05:00:09;-0.70;81.50
12901;DHT22;6518;50.930;5.344;2023-03-01T05:02:47;-0.70;81.70
12901;DHT22;6518;50.930;5.344;2023-03-01T05:05:20;-0.80;81.80
12901;DHT22;6518;50.930;5.344;2023-03-01T05:07:51;-0.80;81.80
12901;DHT22;6518;50.930;5.344;2023-03-01T05:10:18;-0.80;81.90
12901;DHT22;6518;50.930;5.344;2023-03-01T05:12:45;-0.80;82.20
12901;DHT22;6518;50.930;5.344;2023-03-01T05:15:14;-0.80;82.20
12901;DHT22;6518;50.930;5.344;2023-03-01T05:17:41;-0.90;82.20
12901;DHT22;6518;50.930;5.344;2023-03-01T05:20:09;-0.90;82.20
12901;DHT22;6518;50.930;5.344;2023-03-01T05:22:36;-0.90;82.30
12901;DHT22;6518;50.930;5.344;2023-03-01T05:25:04;-0.80;82.30
12901;DHT22;6518;50.930;5.344;2023-03-01T05:27:31;-0.90;82.40
12901;DHT22;6518;50.930;5.344;2023-03-01T05:29:58;-0.80;82.40
12901;DHT22;6518;50.930;5.344;2023-03-01T05:32:26;-0.80;82.30
12901;DHT22;6518;50.930;5.344;2023-03-01T05:34:52;-0.80;82.20
12901;DHT22;6518;50.930;5.344;2023-03-01T05:37:20;-0.80;82.30
12901;DHT22;6518;50.930;5.344;2023-03-01T05:39:47;-0.80;82.20
12901;DHT22;6518;50.930;5.344;2023-03-01T05:42:15;-0.90;82.10
12901;DHT22;6518;50.930;5.344;2023-03-01T05:44:43;-0.90;82.40
12901;DHT22;6518;50.930;5.344;2023-03-01T05:47:10;-0.90;82.50
12901;DHT22;6518;50.930;5.344;2023-03-01T05:49:38;-1.00;82.40
12901;DHT22;6518;50.930;5.344;2023-03-01T05:52:05;-1.00;82.60
12901;DHT22;6518;50.930;5.344;2023-03-01T05:54:31;-1.00;82.70
12901;DHT22;6518;50.930;5.344;2023-03-01T05:56:58;-1.00;82.70
12901;DHT22;6518;50.930;5.344;2023-03-01T05:59:25;-1.00;82.80
12901;DHT22;6518;50.930;5.344;2023-03-01T06:01:52;-1.00;82.70
12901;DHT22;6518;50.930;5.344;2023-03-01T06:04:19;-1.00;83.10
12901;DHT22;6518;50.930;5.344;2023-03-01T06:06:47;-1.00;83.10
12901;DHT22;6518;50.930;5.344;2023-03-01T06:09:14;-1.00;83.10
12901;DHT22;6518;50.930;5.344;2023-03-01T06:11:41;-1.10;83.20
12901;DHT22;6518;50.930;5.344;2023-03-01T06:14:08;-1.10;83.10
12901;DHT22;6518;50.930;5.344;2023-03-01T06:16:36;-1.10;83.10
12901;DHT22;6518;50.930;5.344;2023-03-01T06:19:02;-1.10;83.20
12901;DHT22;6518;50.930;5.344;2023-03-01T06:21:29;-1.00;83.10
12901;DHT22;6518;50.930;5.344;2023-03-01T06:23:57;-1.00;83.00
12901;DHT22;6518;50.930;5.344;2023-03-01T06:26:24;-1.10;83.00
12901;DHT22;6518;50.930;5.344;2023-03-01T06:28:51;-1.10;84.10
12901;DHT22;6518;50.930;5.344;2023-03-01T06:31:18;-1.10;83.30
12901;DHT22;6518;50.930;5.344;2023-03-01T06:33:45;-1.10;83.50
12901;DHT22;6518;50.930;5.344;2023-03-01T06:36:11;-1.10;83.60
12901;DHT22;6518;50.930;5.344;2023-03-01T06:38:38;-1.10;83.50
12901;DHT22;6518;50.930;5.344;2023-03-01T06:41:07;-1.10;83.40
12901;DHT22;6518;50.930;5.344;2023-03-01T06:43:34;-1.10;83.50
12901;DHT22;6518;50.930;5.344;2023-03-01T06:46:04;-1.00;83.70
12901;DHT22;6518;50.930;5.344;2023-03-01T06:48:32;-1.00;83.40
12901;DHT22;6518;50.930;5.344;2023-03-01T06:50:59;-1.00;83.20
12901;DHT22;6518;50.930;5.344;2023-03-01T06:53:26;-1.00;83.40
12901;DHT22;6518;50.930;5.344;2023-03-01T06:55:54;-0.90;83.40
12901;DHT22;6518;50.930;5.344;2023-03-01T06:58:26;-0.90;83.30
12901;DHT22;6518;50.930;5.344;2023-03-01T07:00:53;-0.90;83.30
12901;DHT22;6518;50.930;5.344;2023-03-01T07:03:19;-0.90;83.30
12901;DHT22;6518;50.930;5.344;2023-03-01T07:05:48;-0.90;83.30
12901;DHT22;6518;50.930;5.344;2023-03-01T07:08:17;-0.80;83.10
12901;DHT22;6518;50.930;5.344;2023-03-01T07:10:46;-0.80;83.40
12901;DHT22;6518;50.930;5.344;2023-03-01T07:13:13;-0.70;83.10
12901;DHT22;6518;50.930;5.344;2023-03-01T07:15:42;-0.70;82.90
12901;DHT22;6518;50.930;5.344;2023-03-01T07:18:08;-0.60;83.00
12901;DHT22;6518;50.930;5.344;2023-03-01T07:20:35;-0.60;82.50
12901;DHT22;6518;50.930;5.344;2023-03-01T07:23:02;-0.60;82.50
12901;DHT22;6518;50.930;5.344;2023-03-01T07:25:29;-0.60;82.50
12901;DHT22;6518;50.930;5.344;2023-03-01T07:27:56;-0.50;82.10
12901;DHT22;6518;50.930;5.344;2023-03-01T07:30:23;-0.50;82.50
12901;DHT22;6518;50.930;5.344;2023-03-01T07:32:53;-0.50;82.40
12901;DHT22;6518;50.930;5.344;2023-03-01T07:35:21;-0.40;82.00
12901;DHT22;6518;50.930;5.344;2023-03-01T07:37:48;-0.40;81.90
12901;DHT22;6518;50.930;5.344;2023-03-01T07:40:15;-0.40;81.80
12901;DHT22;6518;50.930;5.344;2023-03-01T07:42:42;-0.30;81.70
12901;DHT22;6518;50.930;5.344;2023-03-01T07:45:09;-0.30;81.50
12901;DHT22;6518;50.930;5.344;2023-03-01T07:47:36;-0.30;81.50
12901;DHT22;6518;50.930;5.344;2023-03-01T07:50:09;-0.30;81.50
12901;DHT22;6518;50.930;5.344;2023-03-01T07:52:36;-0.40;81.50
12901;DHT22;6518;50.930;5.344;2023-03-01T07:55:03;-0.40;81.80
12901;DHT22;6518;50.930;5.344;2023-03-01T07:57:30;-0.40;81.80
12901;DHT22;6518;50.930;5.344;2023-03-01T07:59:57;-0.30;82.00
12901;DHT22;6518;50.930;5.344;2023-03-01T08:02:23;-0.30;81.80
12901;DHT22;6518;50.930;5.344;2023-03-01T08:04:50;-0.20;81.90
12901;DHT22;6518;50.930;5.344;2023-03-01T08:07:18;-0.20;81.90
12901;DHT22;6518;50.930;5.344;2023-03-01T08:09:45;-0.20;81.60
12901;DHT22;6518;50.930;5.344;2023-03-01T08:12:12;-0.10;81.80
12901;DHT22;6518;50.930;5.344;2023-03-01T08:14:38;0.00;81.60
12901;DHT22;6518;50.930;5.344;2023-03-01T08:17:05;0.10;81.40
12901;DHT22;6518;50.930;5.344;2023-03-01T08:19:32;0.20;81.30
12901;DHT22;6518;50.930;5.344;2023-03-01T08:22:00;0.30;81.20
12901;DHT22;6518;50.930;5.344;2023-03-01T08:24:29;0.40;80.40
12901;DHT22;6518;50.930;5.344;2023-03-01T08:26:55;0.40;80.20
12901;DHT22;6518;50.930;5.344;2023-03-01T08:29:23;0.50;80.10
12901;DHT22;6518;50.930;5.344;2023-03-01T08:31:50;0.50;79.90
12901;DHT22;6518;50.930;5.344;2023-03-01T08:34:17;0.50;79.60
12901;DHT22;6518;50.930;5.344;2023-03-01T08:36:46;0.60;79.40
12901;DHT22;6518;50.930;5.344;2023-03-01T08:39:15;0.60;79.20
12901;DHT22;6518;50.930;5.344;2023-03-01T08:41:44;0.70;79.10
12901;DHT22;6518;50.930;5.344;2023-03-01T08:44:12;0.80;78.80
12901;DHT22;6518;50.930;5.344;2023-03-01T08:46:41;0.80;78.80
12901;DHT22;6518;50.930;5.344;2023-03-01T08:49:10;0.80;78.90
12901;DHT22;6518;50.930;5.344;2023-03-01T08:51:38;0.80;78.60
12901;DHT22;6518;50.930;5.344;2023-03-01T08:54:05;0.90;78.80
12901;DHT22;6518;50.930;5.344;2023-03-01T08:56:32;0.90;78.80
12901;DHT22;6518;50.930;5.344;2023-03-01T08:59:01;1.00;78.70
12901;DHT22;6518;50.930;5.344;2023-03-01T09:01:28;1.00;78.50
12901;DHT22;6518;50.930;5.344;2023-03-01T09:03:55;1.00;78.20
12901;DHT22;6518;50.930;5.344;2023-03-01T09:06:22;1.00;78.20
12901;DHT22;6518;50.930;5.344;2023-03-01T09:08:50;1.00;78.50
12901;DHT22;6518;50.930;5.344;2023-03-01T09:11:19;1.00;78.90
12901;DHT22;6518;50.930;5.344;2023-03-01T09:13:46;1.20;78.00
12901;DHT22;6518;50.930;5.344;2023-03-01T09:16:17;1.40;77.40
12901;DHT22;6518;50.930;5.344;2023-03-01T09:18:45;1.50;76.60
12901;DHT22;6518;50.930;5.344;2023-03-01T09:21:13;1.50;76.80
12901;DHT22;6518;50.930;5.344;2023-03-01T09:23:42;1.90;77.00
12901;DHT22;6518;50.930;5.344;2023-03-01T09:26:10;1.50;76.80
12901;DHT22;6518;50.930;5.344;2023-03-01T09:28:38;1.60;76.70
12901;DHT22;6518;50.930;5.344;2023-03-01T09:31:06;1.70;76.40
12901;DHT22;6518;50.930;5.344;2023-03-01T09:33:34;1.70;76.20
12901;DHT22;6518;50.930;5.344;2023-03-01T09:36:03;1.70;75.90
12901;DHT22;6518;50.930;5.344;2023-03-01T09:38:30;1.80;75.50
12901;DHT22;6518;50.930;5.344;2023-03-01T09:40:57;2.00;74.40
12901;DHT22;6518;50.930;5.344;2023-03-01T09:43:29;2.10;74.40
12901;DHT22;6518;50.930;5.344;2023-03-01T09:46:01;2.10;74.60
12901;DHT22;6518;50.930;5.344;2023-03-01T09:48:41;2.20;74.30
12901;DHT22;6518;50.930;5.344;2023-03-01T09:51:14;2.20;73.20
12901;DHT22;6518;50.930;5.344;2023-03-01T09:53:44;2.40;72.80
12901;DHT22;6518;50.930;5.344;2023-03-01T09:56:15;2.50;72.10
12901;DHT22;6518;50.930;5.344;2023-03-01T09:58:50;2.60;72.00
12901;DHT22;6518;50.930;5.344;2023-03-01T10:01:31;2.60;71.70
12901;DHT22;6518;50.930;5.344;2023-03-01T10:04:12;2.70;71.50
12901;DHT22;6518;50.930;5.344;2023-03-01T10:06:44;2.70;71.40
12901;DHT22;6518;50.930;5.344;2023-03-01T10:09:14;2.70;70.80
12901;DHT22;6518;50.930;5.344;2023-03-01T10:11:45;2.70;71.10
12901;DHT22;6518;50.930;5.344;2023-03-01T10:14:23;2.80;71.30
12901;DHT22;6518;50.930;5.344;2023-03-01T10:16:57;2.90;70.70
12901;DHT22;6518;50.930;5.344;2023-03-01T10:19:32;3.00;70.20
12901;DHT22;6518;50.930;5.344;2023-03-01T10:22:03;3.00;70.20
12901;DHT22;6518;50.930;5.344;2023-03-01T10:24:34;3.00;69.70
12901;DHT22;6518;50.930;5.344;2023-03-01T10:27:05;3.10;69.80
12901;DHT22;6518;50.930;5.344;2023-03-01T10:29:39;3.30;69.70
12901;DHT22;6518;50.930;5.344;2023-03-01T10:32:09;3.40;68.60
12901;DHT22;6518;50.930;5.344;2023-03-01T10:34:38;3.50;67.80
12901;DHT22;6518;50.930;5.344;2023-03-01T10:37:16;3.50;67.30
12901;DHT22;6518;50.930;5.344;2023-03-01T10:39:58;3.50;67.50
12901;DHT22;6518;50.930;5.344;2023-03-01T10:42:29;3.50;67.40
12901;DHT22;6518;50.930;5.344;2023-03-01T10:44:56;3.60;67.90
12901;DHT22;6518;50.930;5.344;2023-03-01T10:47:25;3.60;68.50
12901;DHT22;6518;50.930;5.344;2023-03-01T10:49:59;3.70;67.10
12901;DHT22;6518;50.930;5.344;2023-03-01T10:52:33;3.80;66.70
12901;DHT22;6518;50.930;5.344;2023-03-01T10:55:03;3.80;66.80
12901;DHT22;6518;50.930;5.344;2023-03-01T10:57:34;3.90;66.50
12901;DHT22;6518;50.930;5.344;2023-03-01T11:00:21;4.00;66.10
12901;DHT22;6518;50.930;5.344;2023-03-01T11:02:51;4.00;66.10
12901;DHT22;6518;50.930;5.344;2023-03-01T11:05:24;4.10;65.50
12901;DHT22;6518;50.930;5.344;2023-03-01T11:07:53;4.10;64.80
12901;DHT22;6518;50.930;5.344;2023-03-01T11:10:22;4.10;65.00
12901;DHT22;6518;50.930;5.344;2023-03-01T11:12:51;4.20;65.00
12901;DHT22;6518;50.930;5.344;2023-03-01T11:15:25;4.20;65.40
12901;DHT22;6518;50.930;5.344;2023-03-01T11:17:53;4.20;64.90
12901;DHT22;6518;50.930;5.344;2023-03-01T11:20:29;4.20;64.40
12901;DHT22;6518;50.930;5.344;2023-03-01T11:23:01;4.30;64.10
12901;DHT22;6518;50.930;5.344;2023-03-01T11:25:34;4.30;63.90
12901;DHT22;6518;50.930;5.344;2023-03-01T11:28:04;4.40;63.80
12901;DHT22;6518;50.930;5.344;2023-03-01T11:30:35;4.50;63.60
12901;DHT22;6518;50.930;5.344;2023-03-01T11:33:13;4.50;63.40
12901;DHT22;6518;50.930;5.344;2023-03-01T11:35:49;4.50;63.80
12901;DHT22;6518;50.930;5.344;2023-03-01T11:38:21;4.50;63.90
12901;DHT22;6518;50.930;5.344;2023-03-01T11:40:53;4.50;63.70
12901;DHT22;6518;50.930;5.344;2023-03-01T11:43:30;4.60;63.30
12901;DHT22;6518;50.930;5.344;2023-03-01T11:49:44;4.70;61.30
12901;DHT22;6518;50.930;5.344;2023-03-01T11:52:23;4.70;61.70
12901;DHT22;6518;50.930;5.344;2023-03-01T11:55:03;4.70;61.90
12901;DHT22;6518;50.930;5.344;2023-03-01T11:57:45;4.70;62.10
12901;DHT22;6518;50.930;5.344;2023-03-01T12:00:29;4.70;61.50
12901;DHT22;6518;50.930;5.344;2023-03-01T12:03:29;4.70;61.80
12901;DHT22;6518;50.930;5.344;2023-03-01T12:06:35;4.70;61.60
12901;DHT22;6518;50.930;5.344;2023-03-01T12:09:27;4.80;61.50
12901;DHT22;6518;50.930;5.344;2023-03-01T12:12:29;4.80;61.00
12901;DHT22;6518;50.930;5.344;2023-03-01T12:15:31;4.80;61.60
12901;DHT22;6518;50.930;5.344;2023-03-01T12:18:26;4.80;60.50
12901;DHT22;6518;50.930;5.344;2023-03-01T12:21:02;4.90;60.30
12901;DHT22;6518;50.930;5.344;2023-03-01T12:23:49;5.00;59.80
12901;DHT22;6518;50.930;5.344;2023-03-01T12:26:26;5.00;59.50
12901;DHT22;6518;50.930;5.344;2023-03-01T12:29:19;5.00;59.80
12901;DHT22;6518;50.930;5.344;2023-03-01T12:32:17;5.10;60.00
12901;DHT22;6518;50.930;5.344;2023-03-01T12:34:56;5.20;59.80
12901;DHT22;6518;50.930;5.344;2023-03-01T12:37:36;5.20;59.60
12901;DHT22;6518;50.930;5.344;2023-03-01T12:40:30;5.20;59.70
12901;DHT22;6518;50.930;5.344;2023-03-01T12:43:10;5.20;59.50
12901;DHT22;6518;50.930;5.344;2023-03-01T12:45:59;5.30;60.00
12901;DHT22;6518;50.930;5.344;2023-03-01T12:48:37;5.40;59.40
12901;DHT22;6518;50.930;5.344;2023-03-01T12:51:08;5.40;58.40
12901;DHT22;6518;50.930;5.344;2023-03-01T12:53:40;5.30;58.00
12901;DHT22;6518;50.930;5.344;2023-03-01T12:56:10;5.30;58.70
12901;DHT22;6518;50.930;5.344;2023-03-01T12:58:46;5.30;59.00
12901;DHT22;6518;50.930;5.344;2023-03-01T13:01:22;5.30;59.10
12901;DHT22;6518;50.930;5.344;2023-03-01T13:04:21;5.40;58.80
12901;DHT22;6518;50.930;5.344;2023-03-01T13:06:58;5.40;59.00
12901;DHT22;6518;50.930;5.344;2023-03-01T13:09:34;5.40;59.40
12901;DHT22;6518;50.930;5.344;2023-03-01T13:15:25;5.50;59.30
12901;DHT22;6518;50.930;5.344;2023-03-01T13:17:53;5.60;58.90
12901;DHT22;6518;50.930;5.344;2023-03-01T13:20:22;5.60;58.70
12901;DHT22;6518;50.930;5.344;2023-03-01T13:23:01;5.60;58.60
12901;DHT22;6518;50.930;5.344;2023-03-01T13:25:28;5.60;58.60
12901;DHT22;6518;50.930;5.344;2023-03-01T13:34:43;5.70;58.30
12901;DHT22;6518;50.930;5.344;2023-03-01T13:37:20;5.70;57.70
12901;DHT22;6518;50.930;5.344;2023-03-01T13:39:47;5.70;57.70
12901;DHT22;6518;50.930;5.344;2023-03-01T13:42:41;5.70;57.90
12901;DHT22;6518;50.930;5.344;2023-03-01T13:45:21;5.70;58.20
12901;DHT22;6518;50.930;5.344;2023-03-01T13:47:55;5.70;58.30
12901;DHT22;6518;50.930;5.344;2023-03-01T13:50:25;5.80;58.10
12901;DHT22;6518;50.930;5.344;2023-03-01T13:52:56;5.80;58.70
12901;DHT22;6518;50.930;5.344;2023-03-01T13:55:27;5.70;58.50
12901;DHT22;6518;50.930;5.344;2023-03-01T13:57:58;5.80;58.70
12901;DHT22;6518;50.930;5.344;2023-03-01T14:00:28;5.80;58.30
12901;DHT22;6518;50.930;5.344;2023-03-01T14:03:11;5.70;58.40
12901;DHT22;6518;50.930;5.344;2023-03-01T14:05:39;5.80;59.40
12901;DHT22;6518;50.930;5.344;2023-03-01T14:08:19;5.80;58.40
12901;DHT22;6518;50.930;5.344;2023-03-01T14:14:06;6.00;58.10
12901;DHT22;6518;50.930;5.344;2023-03-01T14:16:41;6.10;57.60
12901;DHT22;6518;50.930;5.344;2023-03-01T14:19:17;6.10;57.40
12901;DHT22;6518;50.930;5.344;2023-03-01T14:21:46;6.10;56.80
12901;DHT22;6518;50.930;5.344;2023-03-01T14:24:20;6.10;56.50
12901;DHT22;6518;50.930;5.344;2023-03-01T14:26:49;6.10;56.40
12901;DHT22;6518;50.930;5.344;2023-03-01T14:29:34;6.20;56.50
12901;DHT22;6518;50.930;5.344;2023-03-01T14:32:12;6.20;56.20
12901;DHT22;6518;50.930;5.344;2023-03-01T14:34:46;6.20;56.30
12901;DHT22;6518;50.930;5.344;2023-03-01T14:37:22;6.20;56.70
12901;DHT22;6518;50.930;5.344;2023-03-01T14:39:51;6.20;57.10
12901;DHT22;6518;50.930;5.344;2023-03-01T14:42:19;6.20;57.20
12901;DHT22;6518;50.930;5.344;2023-03-01T14:44:49;6.30;57.60
12901;DHT22;6518;50.930;5.344;2023-03-01T14:47:25;6.30;57.60
12901;DHT22;6518;50.930;5.344;2023-03-01T14:49:57;6.30;57.30
12901;DHT22;6518;50.930;5.344;2023-03-01T14:52:31;6.30;56.70
12901;DHT22;6518;50.930;5.344;2023-03-01T14:55:02;6.30;56.70
12901;DHT22;6518;50.930;5.344;2023-03-01T14:57:29;6.30;56.60
12901;DHT22;6518;50.930;5.344;2023-03-01T14:59:59;6.30;56.50
12901;DHT22;6518;50.930;5.344;2023-03-01T15:02:30;6.30;56.20
12901;DHT22;6518;50.930;5.344;2023-03-01T15:05:01;6.30;56.60
12901;DHT22;6518;50.930;5.344;2023-03-01T15:07:32;6.30;57.20
12901;DHT22;6518;50.930;5.344;2023-03-01T15:10:01;6.30;57.50
12901;DHT22;6518;50.930;5.344;2023-03-01T15:12:39;6.30;57.20
12901;DHT22;6518;50.930;5.344;2023-03-01T15:15:21;6.30;57.20
12901;DHT22;6518;50.930;5.344;2023-03-01T15:17:52;6.30;57.10
12901;DHT22;6518;50.930;5.344;2023-03-01T15:20:24;6.30;57.20
12901;DHT22;6518;50.930;5.344;2023-03-01T15:22:55;6.30;57.40
12901;DHT22;6518;50.930;5.344;2023-03-01T15:25:24;6.30;57.30
12901;DHT22;6518;50.930;5.344;2023-03-01T15:27:54;6.30;57.30
12901;DHT22;6518;50.930;5.344;2023-03-01T15:30:23;6.40;57.30
12901;DHT22;6518;50.930;5.344;2023-03-01T15:33:18;6.30;57.50
12901;DHT22;6518;50.930;5.344;2023-03-01T15:35:47;6.30;57.10
12901;DHT22;6518;50.930;5.344;2023-03-01T15:38:28;6.30;57.10
12901;DHT22;6518;50.930;5.344;2023-03-01T15:40:55;6.30;57.00
12901;DHT22;6518;50.930;5.344;2023-03-01T15:43:42;6.30;57.00
12901;DHT22;6518;50.930;5.344;2023-03-01T15:46:20;6.30;57.00
12901;DHT22;6518;50.930;5.344;2023-03-01T15:48:51;6.30;57.00
12901;DHT22;6518;50.930;5.344;2023-03-01T15:51:26;6.30;57.10
12901;DHT22;6518;50.930;5.344;2023-03-01T15:53:54;6.30;57.10
12901;DHT22;6518;50.930;5.344;2023-03-01T15:56:21;6.30;57.00
12901;DHT22;6518;50.930;5.344;2023-03-01T15:58:48;6.30;56.10
12901;DHT22;6518;50.930;5.344;2023-03-01T16:01:16;6.30;55.50
12901;DHT22;6518;50.930;5.344;2023-03-01T16:03:43;6.30;55.30
12901;DHT22;6518;50.930;5.344;2023-03-01T16:06:11;6.30;55.20
12901;DHT22;6518;50.930;5.344;2023-03-01T16:08:39;6.30;55.40
12901;DHT22;6518;50.930;5.344;2023-03-01T16:11:13;6.30;55.30
12901;DHT22;6518;50.930;5.344;2023-03-01T16:13:40;6.30;55.50
12901;DHT22;6518;50.930;5.344;2023-03-01T16:16:09;6.30;55.10
12901;DHT22;6518;50.930;5.344;2023-03-01T16:18:38;6.20;55.30
12901;DHT22;6518;50.930;5.344;2023-03-01T16:21:05;6.20;55.30
12901;DHT22;6518;50.930;5.344;2023-03-01T16:23:32;6.20;55.40
12901;DHT22;6518;50.930;5.344;2023-03-01T16:26:00;6.20;55.50
12901;DHT22;6518;50.930;5.344;2023-03-01T16:28:27;6.20;55.70
12901;DHT22;6518;50.930;5.344;2023-03-01T16:30:54;6.20;56.70
12901;DHT22;6518;50.930;5.344;2023-03-01T16:33:21;6.10;56.10
12901;DHT22;6518;50.930;5.344;2023-03-01T16:35:47;6.10;56.30
12901;DHT22;6518;50.930;5.344;2023-03-01T16:38:14;6.10;56.50